createdAt,value
2022-12-17T00:01:59.585Z,-1.33
2022-12-17T00:06:59.415Z,-1.28
2022-12-17T00:11:59.363Z,-1.23
2022-12-17T00:16:59.275Z,-1.31
2022-12-17T00:21:59.267Z,-1.31
2022-12-17T00:26:59.213Z,-1.34
2022-12-17T00:31:59.205Z,-1.31
2022-12-17T00:36:59.098Z,-1.37
2022-12-17T00:41:59.123Z,-1.31
2022-12-17T00:46:59.063Z,-1.33
2022-12-17T00:51:59.123Z,-1.46
2022-12-17T00:56:59.005Z,-1.54
2022-12-17T01:01:58.918Z,-1.40
2022-12-17T01:06:58.789Z,-1.43
2022-12-17T01:11:58.720Z,-1.45
2022-12-17T01:16:58.694Z,-1.43
2022-12-17T01:21:58.609Z,-1.33
2022-12-17T01:26:58.600Z,-1.37
2022-12-17T01:31:58.640Z,-1.30
2022-12-17T01:36:58.488Z,-1.43
2022-12-17T01:41:58.553Z,-1.51
2022-12-17T01:46:58.374Z,-1.51
2022-12-17T01:51:58.309Z,-1.45
2022-12-17T01:56:58.268Z,-1.38
2022-12-17T02:01:58.366Z,-1.37
2022-12-17T02:06:58.167Z,-1.31
2022-12-17T02:11:58.082Z,-1.27
2022-12-17T02:16:58.087Z,-1.28
2022-12-17T02:21:58.034Z,-1.49
2022-12-17T02:26:57.934Z,-1.46
2022-12-17T02:31:59.042Z,-1.23
2022-12-17T02:36:58.035Z,-1.31
2022-12-17T02:41:57.775Z,-1.25
2022-12-17T02:46:57.760Z,-1.31
2022-12-17T02:51:57.702Z,-1.28
2022-12-17T02:56:57.634Z,-1.22
2022-12-17T03:01:57.709Z,-1.23
2022-12-17T03:06:57.625Z,-1.22
2022-12-17T03:11:57.475Z,-1.33
2022-12-17T03:16:57.578Z,-1.22
2022-12-17T03:21:57.368Z,-1.35
2022-12-17T03:26:57.291Z,-1.51
2022-12-17T03:31:57.241Z,-1.45
2022-12-17T03:36:57.162Z,-1.37
2022-12-17T03:41:57.148Z,-1.45
2022-12-17T03:46:57.029Z,-1.61
2022-12-17T03:51:57.069Z,-1.61
2022-12-17T03:56:57.076Z,-1.56
2022-12-17T04:01:57.046Z,-1.69
2022-12-17T04:06:56.895Z,-1.76
2022-12-17T04:11:56.856Z,-1.72
2022-12-17T04:16:56.793Z,-1.74
2022-12-17T04:21:56.820Z,-1.73
2022-12-17T04:26:59.163Z,-1.64
2022-12-17T04:31:57.621Z,-1.62
2022-12-17T04:36:56.588Z,-1.76
2022-12-17T04:41:58.661Z,-1.59
2022-12-17T04:46:56.435Z,-1.73
2022-12-17T04:51:56.463Z,-1.55
2022-12-17T04:56:56.480Z,-1.55
2022-12-17T05:01:56.531Z,-1.48
2022-12-17T05:06:56.207Z,-1.45
2022-12-17T05:11:56.172Z,-1.52
2022-12-17T05:16:56.136Z,-1.55
2022-12-17T05:21:56.056Z,-1.48
2022-12-17T05:26:56.032Z,-1.41
2022-12-17T05:31:55.933Z,-1.46
2022-12-17T05:36:55.996Z,-1.41
2022-12-17T05:41:55.950Z,-1.41
2022-12-17T05:46:55.869Z,-1.45
2022-12-17T05:51:55.791Z,-1.46
2022-12-17T05:56:55.665Z,-1.38
2022-12-17T06:01:55.725Z,-1.64
2022-12-17T06:06:55.563Z,-1.58
2022-12-17T06:11:59.512Z,-1.62
2022-12-17T06:16:56.566Z,-1.56
2022-12-17T06:21:55.439Z,-1.72
2022-12-17T06:26:55.376Z,-1.74
2022-12-17T06:31:55.365Z,-1.73
2022-12-17T06:36:55.392Z,-1.90
2022-12-17T06:42:02.138Z,-2.03
2022-12-17T06:46:56.234Z,-2.13
2022-12-17T06:51:55.116Z,-2.29
2022-12-17T06:56:55.053Z,-2.10
2022-12-17T07:01:55.080Z,-2.35
2022-12-17T07:06:55.028Z,-2.29
2022-12-17T07:11:54.987Z,-2.30
2022-12-17T07:16:54.843Z,-2.18
2022-12-17T07:21:54.795Z,-2.30
2022-12-17T07:26:54.742Z,-2.43
2022-12-17T07:31:55.090Z,-2.37
2022-12-17T07:36:54.637Z,-2.27
2022-12-17T07:41:54.738Z,-2.42
2022-12-17T07:46:54.635Z,-2.30
2022-12-17T07:51:54.556Z,-2.30
2022-12-17T07:56:54.481Z,-2.24
2022-12-17T08:01:54.502Z,-2.52
2022-12-17T08:07:00.634Z,-2.60
2022-12-17T08:11:55.299Z,-2.45
2022-12-17T08:16:54.321Z,-2.32
2022-12-17T08:21:54.213Z,-2.58
2022-12-17T08:26:54.175Z,-2.66
2022-12-17T08:31:54.097Z,-2.63
2022-12-17T08:36:54.034Z,-2.53
2022-12-17T08:41:55.409Z,-2.53
2022-12-17T08:46:53.888Z,-2.46
2022-12-17T08:51:53.900Z,-2.52
2022-12-17T08:56:53.948Z,-2.42
2022-12-17T09:01:53.921Z,-2.63
2022-12-17T09:06:53.719Z,-2.70
2022-12-17T09:11:53.639Z,-2.79
2022-12-17T09:16:53.665Z,-2.60
2022-12-17T09:21:53.542Z,-2.92
2022-12-17T09:26:53.493Z,-3.21
2022-12-17T09:31:53.463Z,-3.12
2022-12-17T09:36:53.381Z,-3.07
2022-12-17T09:41:53.327Z,-3.02
2022-12-17T09:46:53.295Z,-3.02
2022-12-17T09:51:53.208Z,-3.00
2022-12-17T09:56:53.237Z,-2.88
2022-12-17T10:01:53.365Z,-2.78
2022-12-17T10:06:53.121Z,-2.73
2022-12-17T10:11:53.161Z,-2.63
2022-12-17T10:16:53.001Z,-2.58
2022-12-17T10:21:52.948Z,-2.49
2022-12-17T10:26:52.902Z,-2.32
2022-12-17T10:31:52.873Z,-2.21
2022-12-17T10:36:52.822Z,-2.09
2022-12-17T10:41:52.729Z,-1.97
2022-12-17T10:46:52.690Z,-1.94
2022-12-17T10:51:52.589Z,-1.97
2022-12-17T10:56:52.642Z,-1.94
2022-12-17T11:01:52.756Z,-1.90
2022-12-17T11:06:59.039Z,-1.87
2022-12-17T11:11:52.484Z,-1.70
2022-12-17T11:16:52.332Z,-1.66
2022-12-17T11:21:52.427Z,-1.48
2022-12-17T11:26:52.459Z,-1.41
2022-12-17T11:31:53.403Z,-1.28
2022-12-17T11:36:53.266Z,-1.20
2022-12-17T11:41:52.281Z,-1.25
2022-12-17T11:46:52.206Z,-1.09
2022-12-17T11:51:52.099Z,-1.28
2022-12-17T11:56:52.922Z,-1.12
2022-12-17T12:01:51.971Z,-1.17
2022-12-17T12:06:51.836Z,-1.19
2022-12-17T12:11:51.880Z,-1.10
2022-12-17T12:16:51.771Z,-1.05
2022-12-17T12:21:51.658Z,-1.04
2022-12-17T12:26:52.581Z,-1.10
2022-12-17T12:31:51.629Z,-1.07
2022-12-17T12:36:51.628Z,-1.13
2022-12-17T12:41:51.502Z,-1.22
2022-12-17T12:46:51.489Z,-1.22
2022-12-17T12:51:51.544Z,-1.20
2022-12-17T12:56:51.241Z,-1.15
2022-12-17T13:01:51.561Z,-1.16
2022-12-17T13:06:51.278Z,-1.15
2022-12-17T13:11:51.191Z,-1.15
2022-12-17T13:16:51.245Z,-1.27
2022-12-17T13:21:51.038Z,-1.17
2022-12-17T13:26:50.972Z,-1.27
2022-12-17T13:31:51.017Z,-1.27
2022-12-17T13:36:56.434Z,-1.30
2022-12-17T13:41:50.903Z,-1.34
2022-12-17T14:32:49.267Z,-1.23
2022-12-17T14:37:49.293Z,-1.38
2022-12-17T14:42:49.208Z,-1.48
2022-12-17T14:47:49.080Z,-1.45
2022-12-17T14:52:49.064Z,-1.49
2022-12-17T14:57:49.145Z,-1.64
2022-12-17T15:02:49.267Z,-1.77
2022-12-17T15:07:48.998Z,-1.72
2022-12-17T15:12:48.770Z,-1.79
2022-12-17T15:17:48.950Z,-1.90
2022-12-17T15:22:49.894Z,-1.90
2022-12-17T15:27:48.683Z,-1.92
2022-12-17T15:32:48.616Z,-2.05
2022-12-17T15:37:48.587Z,-2.26
2022-12-17T15:42:48.450Z,-2.48
2022-12-17T15:47:48.456Z,-2.46
2022-12-17T15:52:48.382Z,-2.60
2022-12-17T15:57:48.456Z,-2.85
2022-12-17T16:02:48.609Z,-2.92
2022-12-17T16:07:48.226Z,-2.97
2022-12-17T16:12:48.201Z,-3.10
2022-12-17T16:17:48.130Z,-3.28
2022-12-17T16:22:48.041Z,-3.41
2022-12-17T16:27:48.062Z,-3.45
2022-12-17T16:32:47.969Z,-3.45
2022-12-17T16:37:47.926Z,-3.57
2022-12-17T16:42:47.911Z,-3.66
2022-12-17T16:47:47.772Z,-3.75
2022-12-17T16:52:47.787Z,-3.81
2022-12-17T16:57:47.723Z,-3.94
2022-12-17T17:02:52.976Z,-3.93
2022-12-17T17:07:48.612Z,-3.85
2022-12-17T17:12:47.557Z,-4.03
2022-12-17T17:17:55.828Z,-3.93
2022-12-17T17:22:48.430Z,-3.90
2022-12-17T18:34:50.479Z,-4.01
2022-12-17T18:39:50.241Z,-4.10
2022-12-17T18:45:18.621Z,-4.07
2022-12-17T18:49:50.008Z,-4.17
2022-12-17T18:54:49.899Z,-4.18
2022-12-17T18:59:49.922Z,-4.18
2022-12-17T19:04:49.860Z,-4.29
2022-12-17T19:09:49.959Z,-4.29
2022-12-17T19:14:49.768Z,-4.39
2022-12-17T19:19:50.988Z,-4.46
2022-12-17T19:24:49.691Z,-4.49
2022-12-17T19:29:50.133Z,-4.58
2022-12-17T19:34:49.529Z,-4.60
2022-12-17T19:39:50.507Z,-4.69
2022-12-17T19:44:50.457Z,-4.51
2022-12-17T19:49:49.426Z,-4.32
2022-12-17T19:54:49.388Z,-4.39
2022-12-17T19:59:49.251Z,-4.47
2022-12-17T20:04:49.247Z,-4.43
2022-12-17T20:09:49.168Z,-4.38
2022-12-17T20:14:49.116Z,-4.39
2022-12-17T20:19:49.048Z,-4.39
2022-12-17T20:24:49.046Z,-4.38
2022-12-17T20:29:48.862Z,-4.29
2022-12-17T20:34:48.932Z,-4.18
2022-12-17T20:39:48.869Z,-4.32
2022-12-17T20:44:53.428Z,-4.14
2022-12-17T20:49:49.786Z,-4.07
2022-12-17T20:54:48.626Z,-3.90
2022-12-17T20:59:48.599Z,-3.97
2022-12-17T21:04:48.528Z,-3.91
2022-12-17T21:09:48.488Z,-3.72
2022-12-17T21:14:48.415Z,-3.78
2022-12-17T21:19:48.396Z,-3.78
2022-12-17T21:24:48.330Z,-3.76
2022-12-17T21:29:48.302Z,-3.91
2022-12-17T21:34:48.181Z,-3.91
2022-12-17T21:39:48.252Z,-3.88
2022-12-17T21:44:48.167Z,-3.63
2022-12-17T21:49:48.114Z,-3.66
2022-12-17T21:54:48.046Z,-3.79
2022-12-17T21:59:47.999Z,-3.72
2022-12-17T22:04:47.978Z,-3.60
2022-12-17T22:10:11.129Z,-3.64
2022-12-17T22:14:48.853Z,-3.62
2022-12-17T22:19:47.754Z,-3.63
2022-12-17T22:24:47.701Z,-3.56
2022-12-17T22:29:47.699Z,-3.45
2022-12-17T22:36:58.288Z,-3.27
2022-12-17T22:44:28.701Z,-3.33
2022-12-17T22:44:53.169Z,-3.27
2022-12-17T22:49:48.462Z,-3.17
2022-12-17T22:54:47.352Z,-3.21
2022-12-17T22:59:47.283Z,-3.15
2022-12-17T23:04:47.315Z,-3.17
2022-12-17T23:09:47.220Z,-3.03
2022-12-17T23:14:47.135Z,-3.06
2022-12-17T23:19:47.283Z,-2.96
2022-12-17T23:24:47.129Z,-2.86
2022-12-17T23:29:55.899Z,-2.79
2022-12-17T23:34:46.826Z,-2.82
2022-12-17T23:39:46.807Z,-2.68
2022-12-17T23:44:46.766Z,-2.71
2022-12-17T23:49:46.734Z,-2.56
2022-12-17T23:54:46.672Z,-2.58
2022-12-17T23:59:46.695Z,-2.50
